createdAt,value
2023-03-10T00:03:07.020Z,18.10
2023-03-10T00:05:33.897Z,21.27
2023-03-10T00:08:00.706Z,19.42
2023-03-10T00:10:27.511Z,19.95
2023-03-10T00:12:54.402Z,20.77
2023-03-10T00:15:21.528Z,20.85
2023-03-10T00:17:52.184Z,21.90
2023-03-10T00:20:19.131Z,21.27
2023-03-10T00:22:45.986Z,21.17
2023-03-10T00:25:12.864Z,20.67
2023-03-10T00:27:39.658Z,21.05
2023-03-10T00:30:07.296Z,19.63
2023-03-10T00:32:35.964Z,20.13
2023-03-10T00:35:05.304Z,21.48
2023-03-10T00:37:32.171Z,19.13
2023-03-10T00:39:59.013Z,18.65
2023-03-10T00:42:25.797Z,19.85
2023-03-10T00:44:52.784Z,18.83
2023-03-10T00:47:19.631Z,19.13
2023-03-10T00:49:47.810Z,18.77
2023-03-10T00:52:14.728Z,18.55
2023-03-10T00:54:42.042Z,18.90
2023-03-10T00:57:09.488Z,19.70
2023-03-10T00:59:49.344Z,19.83
2023-03-10T01:02:18.184Z,19.88
2023-03-10T01:04:45.151Z,20.88
2023-03-10T01:07:12.082Z,20.30
2023-03-10T01:09:38.866Z,19.98
2023-03-10T01:12:06.097Z,19.45
2023-03-10T01:14:32.962Z,20.53
2023-03-10T01:17:04.091Z,20.48
2023-03-10T01:19:31.207Z,20.13
2023-03-10T01:21:57.993Z,19.55
2023-03-10T01:24:26.209Z,20.23
2023-03-10T01:26:53.109Z,19.23
2023-03-10T01:29:19.909Z,19.67
2023-03-10T01:31:46.828Z,20.80
2023-03-10T01:34:13.757Z,19.05
2023-03-10T01:36:41.879Z,18.20
2023-03-10T01:39:08.805Z,19.13
2023-03-10T01:41:39.426Z,19.47
2023-03-10T01:44:20.370Z,18.27
2023-03-10T01:46:48.599Z,18.90
2023-03-10T01:49:39.901Z,18.77
2023-03-10T01:52:22.359Z,19.25
2023-03-10T01:55:09.718Z,17.98
2023-03-10T01:57:43.010Z,18.45
2023-03-10T02:00:13.251Z,19.33
2023-03-10T02:02:56.638Z,19.45
2023-03-10T02:05:24.860Z,18.83
2023-03-10T02:10:22.122Z,17.77
2023-03-10T02:12:52.099Z,18.42
2023-03-10T02:15:20.644Z,18.65
2023-03-10T02:17:48.841Z,18.52
2023-03-10T02:20:45.462Z,18.52
2023-03-10T02:23:18.142Z,17.90
2023-03-10T02:26:00.403Z,18.25
2023-03-10T02:28:27.218Z,16.27
2023-03-10T02:30:54.785Z,18.63
2023-03-10T02:33:26.436Z,17.40
2023-03-10T02:36:01.645Z,17.45
2023-03-10T02:38:28.460Z,17.73
2023-03-10T02:40:57.222Z,17.83
2023-03-10T02:43:33.924Z,16.08
2023-03-10T02:46:08.866Z,15.75
2023-03-10T02:48:40.698Z,15.95
2023-03-10T02:51:29.695Z,16.00
2023-03-10T02:54:00.386Z,15.80
2023-03-10T02:56:29.084Z,15.18
2023-03-10T02:58:59.111Z,14.95
2023-03-10T03:01:30.345Z,14.50
2023-03-10T03:03:58.490Z,14.90
2023-03-10T03:06:27.176Z,14.98
2023-03-10T03:08:54.269Z,14.93
2023-03-10T03:11:23.484Z,14.32
2023-03-10T03:13:50.952Z,14.70
2023-03-10T03:16:18.239Z,15.00
2023-03-10T03:18:48.152Z,14.48
2023-03-10T03:21:18.425Z,14.38
2023-03-10T03:23:47.327Z,14.10
2023-03-10T03:26:22.275Z,13.57
2023-03-10T03:28:52.168Z,14.32
2023-03-10T03:31:25.362Z,14.20
2023-03-10T03:34:00.908Z,14.25
2023-03-10T03:36:28.036Z,14.30
2023-03-10T03:41:24.296Z,13.43
2023-03-10T03:43:51.360Z,13.23
2023-03-10T03:46:18.413Z,13.15
2023-03-10T03:48:47.399Z,12.38
2023-03-10T03:51:14.404Z,13.25
2023-03-10T03:53:42.885Z,13.63
2023-03-10T03:56:09.670Z,13.85
2023-03-10T03:58:37.971Z,14.35
2023-03-10T04:01:05.189Z,13.27
2023-03-10T04:03:38.143Z,12.68
2023-03-10T04:06:07.924Z,13.10
2023-03-10T04:08:34.939Z,13.10
2023-03-10T04:11:02.282Z,13.63
2023-03-10T04:13:30.629Z,14.80
2023-03-10T04:15:59.307Z,13.70
2023-03-10T04:18:32.275Z,14.55
2023-03-10T04:20:59.354Z,14.60
2023-03-10T04:23:27.496Z,13.60
2023-03-10T04:25:54.735Z,13.90
2023-03-10T04:28:21.720Z,12.98
2023-03-10T04:30:49.728Z,12.75
2023-03-10T04:33:19.411Z,12.57
2023-03-10T04:35:48.895Z,11.82
2023-03-10T04:38:17.792Z,12.25
2023-03-10T04:40:46.093Z,12.20
2023-03-10T04:43:13.024Z,12.02
2023-03-10T04:45:40.547Z,12.13
2023-03-10T04:48:08.936Z,12.50
2023-03-10T04:50:36.109Z,12.88
2023-03-10T04:53:03.010Z,12.63
2023-03-10T04:55:31.330Z,13.20
2023-03-10T04:58:01.093Z,12.07
2023-03-10T05:00:28.303Z,11.85
2023-03-10T05:02:55.719Z,12.43
2023-03-10T05:05:22.838Z,12.40
2023-03-10T05:07:49.792Z,12.38
2023-03-10T05:10:17.105Z,12.40
2023-03-10T05:12:43.961Z,12.10
2023-03-10T05:15:11.794Z,12.43
2023-03-10T05:17:38.688Z,11.82
2023-03-10T05:20:08.679Z,11.97
2023-03-10T05:22:38.007Z,12.57
2023-03-10T05:25:08.691Z,12.18
2023-03-10T05:27:37.237Z,11.88
2023-03-10T05:30:08.028Z,12.82
2023-03-10T05:32:36.406Z,12.45
2023-03-10T05:35:05.005Z,12.02
2023-03-10T05:37:40.060Z,12.63
2023-03-10T05:40:13.636Z,12.25
2023-03-10T05:42:40.649Z,12.40
2023-03-10T05:45:08.393Z,12.30
2023-03-10T05:47:37.184Z,12.30
2023-03-10T05:50:05.709Z,13.05
2023-03-10T05:52:39.926Z,13.07
2023-03-10T05:55:11.532Z,12.38
2023-03-10T05:57:38.581Z,13.00
2023-03-10T06:00:10.060Z,12.45
2023-03-10T06:02:41.497Z,12.95
2023-03-10T06:05:12.631Z,13.63
2023-03-10T06:07:39.824Z,13.95
2023-03-10T06:10:07.540Z,13.10
2023-03-10T06:12:34.388Z,13.52
2023-03-10T06:15:01.270Z,13.52
2023-03-10T06:17:28.092Z,14.65
2023-03-10T06:19:57.541Z,14.07
2023-03-10T06:22:24.396Z,13.93
2023-03-10T06:24:51.206Z,14.10
2023-03-10T06:27:18.178Z,13.75
2023-03-10T06:29:45.007Z,14.18
2023-03-10T06:32:11.956Z,14.82
2023-03-10T06:34:38.865Z,14.68
2023-03-10T06:37:05.784Z,14.35
2023-03-10T06:39:32.636Z,14.40
2023-03-10T06:42:01.111Z,14.73
2023-03-10T06:44:27.912Z,14.57
2023-03-10T06:46:54.800Z,14.73
2023-03-10T06:49:21.744Z,14.80
2023-03-10T06:51:48.564Z,14.55
2023-03-10T06:54:15.461Z,15.13
2023-03-10T06:56:42.389Z,14.38
2023-03-10T06:59:09.211Z,14.38
2023-03-10T07:01:36.044Z,13.75
2023-03-10T07:04:03.175Z,13.60
2023-03-10T07:06:30.325Z,14.05
2023-03-10T07:08:57.160Z,14.77
2023-03-10T07:11:27.659Z,14.18
2023-03-10T07:13:58.392Z,14.23
2023-03-10T07:16:25.339Z,14.30
2023-03-10T07:18:52.486Z,14.60
2023-03-10T07:21:21.807Z,14.52
2023-03-10T07:23:49.675Z,14.23
2023-03-10T07:26:18.724Z,14.20
2023-03-10T07:28:46.617Z,14.48
2023-03-10T07:31:14.539Z,15.48
2023-03-10T07:33:41.702Z,14.70
2023-03-10T07:36:11.109Z,14.57
2023-03-10T07:38:37.977Z,14.73
2023-03-10T07:41:14.487Z,14.73
2023-03-10T07:43:41.398Z,13.90
2023-03-10T07:46:11.109Z,14.25
2023-03-10T07:48:38.654Z,13.73
2023-03-10T07:51:06.128Z,14.05
2023-03-10T07:53:33.302Z,14.40
2023-03-10T07:56:00.138Z,13.82
2023-03-10T07:58:30.062Z,14.90
2023-03-10T08:00:58.541Z,15.75
2023-03-10T08:03:27.670Z,16.88
2023-03-10T08:06:07.237Z,15.43
2023-03-10T08:12:39.669Z,13.73
2023-03-10T08:15:07.167Z,14.18
2023-03-10T08:17:33.950Z,14.40
2023-03-10T08:20:01.209Z,13.30
2023-03-10T08:22:28.410Z,13.77
2023-03-10T08:24:56.162Z,14.30
2023-03-10T08:27:23.080Z,13.10
2023-03-10T08:29:49.901Z,13.43
2023-03-10T08:32:16.979Z,12.77
2023-03-10T08:34:44.152Z,13.18
2023-03-10T08:37:11.475Z,12.82
2023-03-10T08:39:38.908Z,12.40
2023-03-10T08:42:06.172Z,12.52
2023-03-10T08:44:39.107Z,12.93
2023-03-10T08:47:06.361Z,11.55
2023-03-10T08:49:33.448Z,11.73
2023-03-10T08:52:00.625Z,10.85
2023-03-10T08:54:28.390Z,10.38
2023-03-10T08:56:56.011Z,8.23
2023-03-10T08:59:25.412Z,8.07
2023-03-10T09:01:52.243Z,7.85
2023-03-10T09:04:19.230Z,7.97
2023-03-10T09:06:46.214Z,7.43
2023-03-10T09:09:13.154Z,6.28
2023-03-10T09:11:41.230Z,5.75
2023-03-10T09:14:11.061Z,3.95
2023-03-10T09:16:39.558Z,3.72
2023-03-10T09:19:06.441Z,2.90
2023-03-10T09:21:33.849Z,2.80
2023-03-10T09:24:01.845Z,2.00
2023-03-10T09:26:31.979Z,1.50
2023-03-10T09:28:58.821Z,1.50
2023-03-10T09:31:30.296Z,1.27
2023-03-10T09:33:57.218Z,1.25
2023-03-10T09:36:24.305Z,0.90
2023-03-10T09:38:53.839Z,1.17
2023-03-10T09:41:35.130Z,1.08
2023-03-10T09:44:32.413Z,0.80
2023-03-10T09:47:05.704Z,0.95
2023-03-10T09:49:38.258Z,0.98
2023-03-10T09:52:46.521Z,0.95
2023-03-10T09:55:48.553Z,1.52
2023-03-10T09:58:36.814Z,0.90
2023-03-10T10:01:06.248Z,0.60
2023-03-10T10:04:01.537Z,0.60
2023-03-10T10:06:38.885Z,0.60
2023-03-10T10:09:11.786Z,0.73
2023-03-10T10:11:42.978Z,0.82
2023-03-10T10:14:22.305Z,0.90
2023-03-10T10:17:00.893Z,0.73
2023-03-10T10:19:28.721Z,1.17
2023-03-10T10:22:35.473Z,0.60
2023-03-10T10:25:08.430Z,0.60
2023-03-10T10:27:39.172Z,0.47
2023-03-10T10:30:30.519Z,0.47
2023-03-10T10:33:08.093Z,0.50
2023-03-10T10:35:41.037Z,0.60
2023-03-10T10:38:10.926Z,0.50
2023-03-10T10:41:21.193Z,0.65
2023-03-10T10:43:48.976Z,0.30
2023-03-10T10:46:22.993Z,0.47
2023-03-10T10:48:59.846Z,0.60
2023-03-10T10:51:29.660Z,0.45
2023-03-10T10:54:02.651Z,1.00
2023-03-10T10:56:30.578Z,2.28
2023-03-10T10:59:19.963Z,2.42
2023-03-10T11:01:59.015Z,4.20
2023-03-10T11:04:41.250Z,4.50
2023-03-10T11:07:29.782Z,5.30
2023-03-10T11:09:58.121Z,5.10
2023-03-10T11:12:37.373Z,5.35
2023-03-10T11:15:09.882Z,5.50
2023-03-10T11:17:58.121Z,6.53
2023-03-10T11:20:39.773Z,6.95
2023-03-10T11:23:06.553Z,6.72
2023-03-10T11:25:39.590Z,6.90
2023-03-10T11:28:30.541Z,7.18
2023-03-10T11:31:30.893Z,7.95
2023-03-10T11:34:09.679Z,7.28
2023-03-10T11:36:56.647Z,8.60
2023-03-10T11:39:36.069Z,10.20
2023-03-10T11:42:30.581Z,11.60
2023-03-10T11:45:14.141Z,11.40
2023-03-10T11:48:03.914Z,12.05
2023-03-10T11:50:41.366Z,11.52
2023-03-10T11:53:25.690Z,11.70
2023-03-10T11:55:55.003Z,12.18
2023-03-10T11:58:26.184Z,12.20
2023-03-10T12:00:54.555Z,12.52
2023-03-10T12:03:37.150Z,12.32
2023-03-10T12:06:12.586Z,12.80
2023-03-10T12:08:40.631Z,12.90
2023-03-10T12:11:16.699Z,12.25
2023-03-10T12:13:48.094Z,11.73
2023-03-10T12:16:24.693Z,11.05
2023-03-10T12:18:52.025Z,10.75
2023-03-10T12:21:30.401Z,10.50
2023-03-10T12:24:03.888Z,10.30
2023-03-10T12:26:40.072Z,10.18
2023-03-10T12:29:21.849Z,10.35
2023-03-10T12:31:54.433Z,10.15
2023-03-10T12:34:28.625Z,9.45
2023-03-10T12:37:10.162Z,10.02
2023-03-10T12:39:41.708Z,9.32
2023-03-10T12:42:31.475Z,9.18
2023-03-10T12:45:21.868Z,9.13
2023-03-10T12:48:01.595Z,8.90
2023-03-10T12:50:50.848Z,8.98
2023-03-10T12:53:38.780Z,8.75
2023-03-10T12:59:00.993Z,8.05
2023-03-10T13:01:36.661Z,8.27
2023-03-10T13:04:07.521Z,8.27
2023-03-10T13:06:39.026Z,7.88
2023-03-10T13:09:27.113Z,7.85
2023-03-10T13:12:03.736Z,8.05
2023-03-10T13:14:39.652Z,7.93
2023-03-10T13:17:09.568Z,8.00
2023-03-10T13:19:37.654Z,7.80
2023-03-10T13:22:04.925Z,7.03
2023-03-10T13:24:38.309Z,7.17
2023-03-10T13:27:12.839Z,6.28
2023-03-10T13:29:40.944Z,5.95
2023-03-10T13:32:19.297Z,4.95
2023-03-10T13:34:46.189Z,5.43
2023-03-10T13:37:13.061Z,5.28
2023-03-10T13:39:40.156Z,5.55
2023-03-10T13:42:43.432Z,5.78
2023-03-10T13:45:22.047Z,6.28
2023-03-10T13:50:17.220Z,7.63
2023-03-10T13:52:57.228Z,7.40
2023-03-10T13:55:24.291Z,7.13
2023-03-10T13:57:53.000Z,7.20
2023-03-10T14:00:25.957Z,6.40
2023-03-10T14:02:54.992Z,6.28
2023-03-10T14:05:37.389Z,5.95
2023-03-10T14:08:04.792Z,6.13
2023-03-10T14:10:31.764Z,5.97
2023-03-10T14:12:58.602Z,6.38
2023-03-10T14:15:38.719Z,5.78
2023-03-10T14:18:08.660Z,6.10
2023-03-10T14:20:38.971Z,5.90
2023-03-10T14:23:27.101Z,5.63
2023-03-10T14:25:56.097Z,5.35
2023-03-10T14:28:27.105Z,4.90
2023-03-10T14:30:54.614Z,4.93
2023-03-10T14:33:21.564Z,5.35
2023-03-10T14:35:49.881Z,5.00
2023-03-10T14:38:17.454Z,5.10
2023-03-10T14:40:51.419Z,4.93
2023-03-10T14:43:25.413Z,5.00
2023-03-10T14:45:54.933Z,4.60
2023-03-10T14:48:24.745Z,4.65
2023-03-10T14:50:56.902Z,4.53
2023-03-10T14:53:26.263Z,4.65
2023-03-10T14:55:57.958Z,4.07
2023-03-10T14:58:30.857Z,4.30
2023-03-10T15:00:57.777Z,5.47
2023-03-10T15:03:24.544Z,5.15
2023-03-10T15:05:51.481Z,4.72
2023-03-10T15:08:19.957Z,4.63
2023-03-10T15:10:50.596Z,4.68
2023-03-10T15:13:19.718Z,4.95
2023-03-10T15:15:47.909Z,4.90
2023-03-10T15:20:43.280Z,5.38
2023-03-10T15:23:12.501Z,4.85
2023-03-10T15:25:43.709Z,4.90
2023-03-10T15:33:36.806Z,5.05
2023-03-10T15:36:04.322Z,5.18
2023-03-10T15:38:31.110Z,5.80
2023-03-10T15:40:57.950Z,6.13
2023-03-10T15:43:24.746Z,6.45
2023-03-10T15:45:51.597Z,6.35
2023-03-10T15:48:18.525Z,6.72
2023-03-10T15:50:49.051Z,6.50
2023-03-10T15:53:16.121Z,7.50
2023-03-10T15:55:46.052Z,7.50
2023-03-10T15:58:13.056Z,8.68
2023-03-10T16:00:40.476Z,8.52
2023-03-10T16:03:07.510Z,8.60
2023-03-10T16:05:35.452Z,8.80
2023-03-10T16:08:06.084Z,8.00
2023-03-10T16:10:38.265Z,8.75
2023-03-10T16:13:07.593Z,8.52
2023-03-10T16:15:39.349Z,9.02
2023-03-10T16:18:06.262Z,8.98
2023-03-10T16:20:33.172Z,9.43
2023-03-10T16:23:00.134Z,10.05
2023-03-10T16:25:27.027Z,10.18
2023-03-10T16:27:53.927Z,9.63
2023-03-10T16:30:21.000Z,10.20
2023-03-10T16:32:49.628Z,9.90
2023-03-10T16:35:17.679Z,11.30
2023-03-10T16:37:44.721Z,11.45
2023-03-10T16:40:12.450Z,11.98
2023-03-10T16:42:43.212Z,11.23
2023-03-10T16:45:10.881Z,10.65
2023-03-10T16:47:38.053Z,11.93
2023-03-10T16:50:07.832Z,11.68
2023-03-10T16:52:41.007Z,12.90
2023-03-10T16:55:12.992Z,13.45
2023-03-10T16:57:43.407Z,13.15
2023-03-10T17:00:11.071Z,13.23
2023-03-10T17:02:38.451Z,14.27
2023-03-10T17:05:06.623Z,14.13
2023-03-10T17:07:40.540Z,14.40
2023-03-10T17:10:13.435Z,14.93
2023-03-10T17:12:40.253Z,16.60
2023-03-10T17:15:07.503Z,14.95
2023-03-10T17:17:36.504Z,14.90
2023-03-10T17:20:07.118Z,15.45
2023-03-10T17:22:34.037Z,14.45
2023-03-10T17:25:00.930Z,14.60
2023-03-10T17:27:30.600Z,15.48
2023-03-10T17:29:57.496Z,15.38
2023-03-10T17:32:25.994Z,15.77
2023-03-10T17:34:53.733Z,15.63
2023-03-10T17:37:21.183Z,16.30
2023-03-10T17:39:48.430Z,17.38
2023-03-10T17:42:15.285Z,16.83
2023-03-10T17:44:42.473Z,16.63
2023-03-10T17:47:09.279Z,16.60
2023-03-10T17:49:36.343Z,16.83
2023-03-10T17:52:03.311Z,15.77
2023-03-10T17:54:30.145Z,16.80
2023-03-10T17:56:57.130Z,15.70
2023-03-10T17:59:24.197Z,15.93
2023-03-10T18:01:51.114Z,15.27
2023-03-10T18:04:18.086Z,14.35
2023-03-10T18:06:45.049Z,14.68
2023-03-10T18:09:14.552Z,15.02
2023-03-10T18:11:41.374Z,14.50
2023-03-10T18:14:08.350Z,14.25
2023-03-10T18:16:39.478Z,13.82
2023-03-10T18:19:10.462Z,14.02
2023-03-10T18:21:38.133Z,14.10
2023-03-10T18:24:05.413Z,14.93
2023-03-10T18:26:32.494Z,13.98
2023-03-10T18:28:59.895Z,13.02
2023-03-10T18:31:29.531Z,13.80
2023-03-10T18:33:56.669Z,13.32
2023-03-10T18:36:24.625Z,13.20
2023-03-10T18:41:21.909Z,13.95
2023-03-10T18:43:49.473Z,14.35
2023-03-10T18:46:16.561Z,13.45
2023-03-10T18:48:43.508Z,13.93
2023-03-10T18:51:11.163Z,13.95
2023-03-10T18:53:39.234Z,13.55
2023-03-10T18:56:10.571Z,14.50
2023-03-10T18:58:42.019Z,13.80
2023-03-10T19:01:14.182Z,14.57
2023-03-10T19:03:41.878Z,15.07
2023-03-10T19:06:09.447Z,15.00
2023-03-10T19:08:37.587Z,16.23
2023-03-10T19:11:06.634Z,16.40
2023-03-10T19:13:33.917Z,16.90
2023-03-10T19:16:06.219Z,16.00
2023-03-10T19:18:33.107Z,16.52
2023-03-10T19:21:00.901Z,16.52
2023-03-10T19:23:28.325Z,17.55
2023-03-10T19:25:55.637Z,17.52
2023-03-10T19:28:25.460Z,18.30
2023-03-10T19:30:52.269Z,18.45
2023-03-10T19:33:19.275Z,18.58
2023-03-10T19:35:46.082Z,17.90
2023-03-10T19:38:15.577Z,18.58
2023-03-10T19:40:46.516Z,17.85
2023-03-10T19:43:13.347Z,18.60
2023-03-10T19:45:40.153Z,17.73
2023-03-10T19:48:11.228Z,19.42
2023-03-10T19:50:38.215Z,18.88
2023-03-10T19:53:05.019Z,19.10
2023-03-10T19:55:31.956Z,18.48
2023-03-10T19:57:59.015Z,19.30
2023-03-10T20:00:31.252Z,19.95
2023-03-10T20:02:58.548Z,27.40
2023-03-10T20:05:26.743Z,21.00
2023-03-10T20:07:53.963Z,19.27
2023-03-10T20:10:20.901Z,18.33
2023-03-10T20:12:48.035Z,18.52
2023-03-10T20:15:15.549Z,20.40
2023-03-10T20:17:42.384Z,19.83
2023-03-10T20:20:10.748Z,18.88
2023-03-10T20:22:39.893Z,18.83
2023-03-10T20:25:12.128Z,19.95
2023-03-10T20:27:38.987Z,20.13
2023-03-10T20:30:14.165Z,20.35
2023-03-10T20:32:41.264Z,20.60
2023-03-10T20:35:08.586Z,21.80
2023-03-10T20:37:37.649Z,20.75
2023-03-10T20:40:06.151Z,20.63
2023-03-10T20:42:33.626Z,20.35
2023-03-10T20:45:00.672Z,21.75
2023-03-10T20:47:27.577Z,22.10
2023-03-10T20:50:01.070Z,20.77
2023-03-10T20:52:27.961Z,20.73
2023-03-10T20:54:55.241Z,22.10
2023-03-10T20:57:24.892Z,23.17
2023-03-10T20:59:51.709Z,22.83
2023-03-10T21:02:18.913Z,23.92
2023-03-10T21:04:47.346Z,23.80
2023-03-10T21:07:14.365Z,23.27
2023-03-10T21:09:44.119Z,21.92
2023-03-10T21:12:12.074Z,22.40
2023-03-10T21:14:38.986Z,23.25
2023-03-10T21:17:05.894Z,23.38
2023-03-10T21:19:35.876Z,23.27
2023-03-10T21:22:03.527Z,22.85
2023-03-10T21:24:30.893Z,23.42
2023-03-10T21:26:57.729Z,23.23
2023-03-10T21:29:24.635Z,24.35
2023-03-10T21:31:51.871Z,23.85
2023-03-10T21:34:18.732Z,24.65
2023-03-10T21:36:45.740Z,23.77
2023-03-10T21:39:12.879Z,24.90
2023-03-10T21:41:39.891Z,26.07
2023-03-10T21:44:07.508Z,24.98
2023-03-10T21:46:34.541Z,25.27
2023-03-10T21:49:04.593Z,25.40
2023-03-10T21:51:34.634Z,24.17
2023-03-10T21:54:02.968Z,25.65
2023-03-10T21:56:29.910Z,25.17
2023-03-10T21:58:57.418Z,23.90
2023-03-10T22:01:25.070Z,24.20
2023-03-10T22:03:51.894Z,23.98
2023-03-10T22:06:18.856Z,23.92
2023-03-10T22:08:46.522Z,23.20
2023-03-10T22:11:16.778Z,22.98
2023-03-10T22:13:43.957Z,24.20
2023-03-10T22:16:15.658Z,23.50
2023-03-10T22:18:46.383Z,23.00
2023-03-10T22:21:13.280Z,22.88
2023-03-10T22:23:40.156Z,22.70
2023-03-10T22:26:07.809Z,21.88
2023-03-10T22:28:34.586Z,22.45
2023-03-10T22:31:01.795Z,21.23
2023-03-10T22:33:31.813Z,21.50
2023-03-10T22:36:03.718Z,20.48
2023-03-10T22:38:30.615Z,20.42
2023-03-10T22:40:57.454Z,22.00
2023-03-10T22:43:27.037Z,21.52
2023-03-10T22:45:59.306Z,19.45
2023-03-10T22:48:26.217Z,21.67
2023-03-10T22:50:53.058Z,20.92
2023-03-10T22:53:21.044Z,21.85
2023-03-10T22:55:49.845Z,23.30
2023-03-10T22:58:17.201Z,23.02
2023-03-10T23:00:44.549Z,24.17
2023-03-10T23:03:13.722Z,23.20
2023-03-10T23:05:43.470Z,22.88
2023-03-10T23:08:10.645Z,22.98
2023-03-10T23:10:38.483Z,22.03
2023-03-10T23:13:08.396Z,21.38
2023-03-10T23:15:37.567Z,20.35
2023-03-10T23:18:09.324Z,20.35
2023-03-10T23:20:48.830Z,18.60
2023-03-10T23:23:16.442Z,19.40
2023-03-10T23:25:49.784Z,18.60
2023-03-10T23:28:17.899Z,19.80
2023-03-10T23:30:53.014Z,19.42
2023-03-10T23:33:22.971Z,19.25
2023-03-10T23:35:53.669Z,19.02
2023-03-10T23:38:23.419Z,17.58
2023-03-10T23:40:50.859Z,18.00
2023-03-10T23:43:17.756Z,17.58
2023-03-10T23:45:45.224Z,17.95
2023-03-10T23:48:16.093Z,13.07
2023-03-10T23:50:47.529Z,16.90
2023-03-10T23:53:16.306Z,14.95
2023-03-10T23:55:45.383Z,15.35
2023-03-10T23:58:13.396Z,14.95
